Time;durP1;ratioP1;P1;durP2;ratioP2;P2;SDS_P1;SDS_P2;PMS_P1;PMS_P2;Temp;Humidity;BMP_temperature;BMP_pressure;BME280_temperature;BME280_humidity;BME280_pressure;Samples;Min_cycle;Max_cycle;Signal;HPM_P1;HPM_P2
2022/12/17 13:06:35;;;;;;;59.15;34.00;;;;;;;;;;4959650;28;20596;-68
2022/12/17 13:09:16;;;;;;;68.97;37.88;;;;;;;;;;4959624;28;20640;-68
2022/12/17 13:11:43;;;;;;;57.92;33.65;;;;;;;;;;4959395;28;20124;-69
2022/12/17 13:14:16;;;;;;;59.45;34.83;;;;;;;;;;4959374;28;20289;-69
2022/12/17 13:16:55;;;;;;;68.85;37.03;;;;;;;;;;4957648;28;20579;-68
2022/12/17 13:19:32;;;;;;;64.30;35.85;;;;;;;;;;4959935;28;20733;-69
2022/12/17 13:22:13;;;;;;;62.45;37.33;;;;;;;;;;4959196;28;20031;-68
2022/12/17 13:24:39;;;;;;;60.92;33.67;;;;;;;;;;4959784;28;20639;-70
2022/12/17 13:27:24;;;;;;;66.55;37.33;;;;;;;;;;4960198;28;20054;-70
2022/12/17 13:29:50;;;;;;;64.72;35.90;;;;;;;;;;4959820;28;20454;-69
2022/12/17 13:32:22;;;;;;;70.47;37.85;;;;;;;;;;4959976;28;20035;-70
2022/12/17 13:34:53;;;;;;;65.22;37.10;;;;;;;;;;4960157;28;20296;-69
2022/12/17 13:37:24;;;;;;;60.38;34.75;;;;;;;;;;4941424;28;20080;-69
2022/12/17 13:40:08;;;;;;;64.43;37.20;;;;;;;;;;4960516;28;20026;-69
2022/12/17 13:42:34;;;;;;;71.68;39.60;;;;;;;;;;4962215;28;20573;-69
2022/12/17 13:45:01;;;;;;;50.83;32.90;;;;;;;;;;4962294;28;20193;-71
2022/12/17 13:47:29;;;;;;;60.55;32.88;;;;;;;;;;4961752;28;20125;-68
2022/12/17 13:49:56;;;;;;;68.60;36.90;;;;;;;;;;4962495;28;20035;-68
2022/12/17 13:52:25;;;;;;;58.38;33.15;;;;;;;;;;4962323;28;20122;-69
2022/12/17 13:54:51;;;;;;;63.90;35.60;;;;;;;;;;4945054;28;20043;-69
2022/12/17 13:57:23;;;;;;;69.40;38.03;;;;;;;;;;4944598;28;20180;-70
2022/12/17 13:59:54;;;;;;;64.05;35.85;;;;;;;;;;4945080;28;20028;-69
2022/12/17 14:02:33;;;;;;;64.93;34.97;;;;;;;;;;4944843;28;20058;-68
2022/12/17 14:04:59;;;;;;;69.40;38.20;;;;;;;;;;4925383;28;20043;-69
2022/12/17 14:07:25;;;;;;;70.10;37.75;;;;;;;;;;4925730;28;20187;-70
2022/12/17 14:09:51;;;;;;;69.82;38.72;;;;;;;;;;4944369;28;20050;-69
2022/12/17 14:12:23;;;;;;;62.60;36.60;;;;;;;;;;4944486;28;20038;-69
2022/12/17 14:14:59;;;;;;;69.70;38.25;;;;;;;;;;4944448;28;20035;-68
2022/12/17 14:17:28;;;;;;;64.10;36.22;;;;;;;;;;4951231;28;20268;-70
2022/12/17 14:20:19;;;;;;;73.22;38.17;;;;;;;;;;4944074;28;20077;-68
2022/12/17 14:22:55;;;;;;;72.65;40.53;;;;;;;;;;4944119;28;20657;-70
2022/12/17 14:25:22;;;;;;;71.40;40.08;;;;;;;;;;4943986;28;20041;-69
2022/12/17 14:27:51;;;;;;;69.97;38.45;;;;;;;;;;4944490;28;20159;-69
2022/12/17 14:30:36;;;;;;;67.85;39.50;;;;;;;;;;4943669;28;20073;-69
2022/12/17 14:33:22;;;;;;;68.72;38.75;;;;;;;;;;4941224;28;20133;-68
2022/12/17 14:35:51;;;;;;;68.53;37.83;;;;;;;;;;4942212;28;20124;-70
2022/12/17 14:38:17;;;;;;;95.75;46.85;;;;;;;;;;4942260;28;20595;-68
2022/12/17 14:40:43;;;;;;;67.90;39.17;;;;;;;;;;4940826;28;20034;-67
2022/12/17 14:43:12;;;;;;;76.55;41.90;;;;;;;;;;4942143;28;20059;-69
2022/12/17 14:46:19;;;;;;;68.00;38.83;;;;;;;;;;4939532;28;20568;-68
2022/12/17 14:48:59;;;;;;;74.85;41.72;;;;;;;;;;4942451;28;20288;-69
2022/12/17 14:51:19;;;;;;;76.88;42.50;;;;;;;;;;4941115;28;20094;-70
2022/12/17 14:53:45;;;;;;;77.70;42.00;;;;;;;;;;4942703;28;20148;-69
2022/12/17 14:56:22;;;;;;;80.50;42.65;;;;;;;;;;4954333;28;20134;-68
2022/12/17 14:58:50;;;;;;;81.75;43.38;;;;;;;;;;4943391;28;20468;-70
2022/12/17 15:01:18;;;;;;;71.63;41.03;;;;;;;;;;4960640;28;20538;-69
2022/12/17 15:03:45;;;;;;;74.00;42.65;;;;;;;;;;4958942;28;20346;-68
2022/12/17 15:06:13;;;;;;;74.43;43.72;;;;;;;;;;4961032;28;20845;-68
2022/12/17 15:08:42;;;;;;;85.15;44.78;;;;;;;;;;4960699;28;20709;-69
2022/12/17 15:11:13;;;;;;;77.88;42.85;;;;;;;;;;4942495;28;20050;-69
2022/12/17 15:13:39;;;;;;;77.82;43.65;;;;;;;;;;4960381;28;20038;-68
2022/12/17 15:16:05;;;;;;;83.65;44.28;;;;;;;;;;4960700;28;20502;-68
2022/12/17 15:18:30;;;;;;;81.25;44.45;;;;;;;;;;4960432;28;20042;-68
2022/12/17 15:20:56;;;;;;;82.25;45.50;;;;;;;;;;4960925;28;20068;-68
2022/12/17 15:23:22;;;;;;;71.20;42.58;;;;;;;;;;4960474;28;20041;-69
2022/12/17 15:25:48;;;;;;;76.25;45.10;;;;;;;;;;4961162;28;20137;-69
2022/12/17 15:28:14;;;;;;;83.63;47.10;;;;;;;;;;4960194;28;20129;-68
2022/12/17 15:30:42;;;;;;;84.60;47.20;;;;;;;;;;4959583;28;20077;-68
2022/12/17 15:33:08;;;;;;;80.13;45.42;;;;;;;;;;4960367;28;20674;-68
2022/12/17 15:35:34;;;;;;;75.63;44.28;;;;;;;;;;4960388;28;20036;-68
2022/12/17 15:37:59;;;;;;;81.38;48.63;;;;;;;;;;4942627;28;20038;-68
2022/12/17 15:40:24;;;;;;;86.75;47.63;;;;;;;;;;4942999;28;20058;-69
2022/12/17 15:45:37;;;;;;;101.28;52.85;;;;;;;;;;4960390;28;20259;-68
2022/12/17 15:48:02;;;;;;;98.85;55.53;;;;;;;;;;4959882;28;20043;-69
2022/12/17 15:50:43;;;;;;;96.37;53.30;;;;;;;;;;4960252;28;20043;-69
2022/12/17 15:53:09;;;;;;;88.60;50.95;;;;;;;;;;4960319;28;20460;-70
2022/12/17 15:55:34;;;;;;;98.30;50.95;;;;;;;;;;4960062;28;20038;-69
2022/12/17 15:58:02;;;;;;;97.15;52.67;;;;;;;;;;4959644;28;20215;-68
2022/12/17 16:00:28;;;;;;;101.45;53.78;;;;;;;;;;4960112;28;20030;-68
2022/12/17 16:02:53;;;;;;;117.47;60.53;;;;;;;;;;4959928;28;20520;-68
2022/12/17 16:05:19;;;;;;;109.23;60.37;;;;;;;;;;4942072;28;20107;-69
2022/12/17 16:07:47;;;;;;;109.57;57.13;;;;;;;;;;4942048;28;20030;-69
2022/12/17 16:10:13;;;;;;;113.05;58.28;;;;;;;;;;4959526;28;20099;-71
2022/12/17 16:12:38;;;;;;;114.80;58.73;;;;;;;;;;4958405;28;20050;-69
2022/12/17 16:15:04;;;;;;;119.03;60.47;;;;;;;;;;4959526;28;20718;-70
2022/12/17 16:17:30;;;;;;;114.87;59.83;;;;;;;;;;4960314;28;20086;-68
2022/12/17 16:19:56;;;;;;;116.17;59.80;;;;;;;;;;4958233;28;20530;-69
2022/12/17 16:22:21;;;;;;;115.87;59.67;;;;;;;;;;4958045;28;20030;-68
2022/12/17 16:24:48;;;;;;;117.03;58.53;;;;;;;;;;4941679;28;20045;-69
2022/12/17 16:27:16;;;;;;;115.13;59.07;;;;;;;;;;4959738;28;20465;-69
2022/12/17 16:29:42;;;;;;;122.57;61.17;;;;;;;;;;4941530;28;20132;-68
2022/12/17 16:32:07;;;;;;;124.90;63.20;;;;;;;;;;4960328;28;20582;-69
2022/12/17 16:34:32;;;;;;;120.47;60.10;;;;;;;;;;4942050;28;20060;-69
2022/12/17 16:37:00;;;;;;;113.37;59.90;;;;;;;;;;4925881;28;20030;-69
2022/12/17 16:39:27;;;;;;;116.03;60.50;;;;;;;;;;4957545;28;20031;-69
2022/12/17 16:41:53;;;;;;;117.83;60.33;;;;;;;;;;4958923;28;20088;-69
2022/12/17 16:44:18;;;;;;;123.53;63.07;;;;;;;;;;4960055;28;20558;-69
2022/12/17 16:46:46;;;;;;;124.73;62.77;;;;;;;;;;4959188;28;20038;-69
2022/12/17 16:49:22;;;;;;;120.73;60.90;;;;;;;;;;4926235;28;20404;-69
2022/12/17 16:51:50;;;;;;;118.67;60.63;;;;;;;;;;4959131;28;20272;-69
2022/12/17 16:54:17;;;;;;;123.80;58.83;;;;;;;;;;4959990;28;20030;-68
2022/12/17 16:56:44;;;;;;;123.53;62.70;;;;;;;;;;4958547;28;20547;-68
2022/12/17 16:59:09;;;;;;;121.50;61.90;;;;;;;;;;4959130;28;20045;-69
2022/12/17 17:01:35;;;;;;;123.20;60.30;;;;;;;;;;4958749;28;20472;-69
2022/12/17 17:04:02;;;;;;;119.47;58.97;;;;;;;;;;4959206;28;20034;-68
2022/12/17 17:06:32;;;;;;;129.60;62.23;;;;;;;;;;4958452;28;20243;-68
2022/12/17 17:09:00;;;;;;;125.13;59.77;;;;;;;;;;4958344;28;20030;-68
2022/12/17 17:11:25;;;;;;;134.90;64.43;;;;;;;;;;4958296;28;20042;-67
2022/12/17 17:13:51;;;;;;;132.50;68.97;;;;;;;;;;4925054;28;20069;-68
2022/12/17 17:16:17;;;;;;;152.57;76.47;;;;;;;;;;4961736;28;20546;-69
2022/12/17 17:18:43;;;;;;;135.13;66.83;;;;;;;;;;4961337;28;20042;-67
2022/12/17 17:21:29;;;;;;;138.80;67.27;;;;;;;;;;4962264;28;20211;-67
2022/12/17 17:24:00;;;;;;;139.63;64.90;;;;;;;;;;4959499;28;20105;-67
2022/12/17 17:26:26;;;;;;;;;;;;;;;;;;4962687;28;20496;-67
2022/12/17 17:28:54;;;;;;;134.63;61.60;;;;;;;;;;4961876;28;20426;-68
2022/12/17 17:31:20;;;;;;;139.60;65.57;;;;;;;;;;4962135;28;20112;-67
2022/12/17 17:33:49;;;;;;;141.03;64.57;;;;;;;;;;4962525;28;20543;-68
2022/12/17 17:36:17;;;;;;;143.40;65.77;;;;;;;;;;4962230;28;20102;-67
2022/12/17 17:38:43;;;;;;;141.50;65.17;;;;;;;;;;4961851;28;20148;-67
2022/12/17 17:41:13;;;;;;;149.97;69.07;;;;;;;;;;4961974;28;20096;-67
2022/12/17 17:43:39;;;;;;;141.23;64.80;;;;;;;;;;4961754;28;20045;-67
2022/12/17 17:46:06;;;;;;;145.23;68.00;;;;;;;;;;4962135;28;20548;-68
2022/12/17 17:48:34;;;;;;;139.63;64.37;;;;;;;;;;4961231;28;20093;-68
2022/12/17 17:51:04;;;;;;;144.43;67.93;;;;;;;;;;4961407;28;20038;-67
2022/12/17 17:53:31;;;;;;;143.93;65.53;;;;;;;;;;4961011;28;20038;-66
2022/12/17 17:56:07;;;;;;;142.57;67.07;;;;;;;;;;4943457;28;20454;-67
2022/12/17 17:58:33;;;;;;;138.87;61.87;;;;;;;;;;4961483;28;20043;-69
2022/12/17 18:00:58;;;;;;;139.63;65.20;;;;;;;;;;4961577;28;20435;-67
2022/12/17 18:03:30;;;;;;;141.63;62.67;;;;;;;;;;4960350;28;20587;-68
2022/12/17 18:06:02;;;;;;;151.95;66.55;;;;;;;;;;4961024;28;20088;-68
2022/12/17 18:08:30;;;;;;;151.37;66.50;;;;;;;;;;4960875;28;20031;-67
2022/12/17 18:10:59;;;;;;;142.53;62.30;;;;;;;;;;4961079;28;20068;-66
2022/12/17 18:16:11;;;;;;;146.73;62.50;;;;;;;;;;4961279;28;20038;-67
2022/12/17 18:18:36;;;;;;;139.60;61.97;;;;;;;;;;4943777;28;20186;-68
2022/12/17 18:21:03;;;;;;;136.97;60.93;;;;;;;;;;4960783;28;20194;-67
2022/12/17 18:23:29;;;;;;;137.50;58.00;;;;;;;;;;4961024;28;20049;-67
2022/12/17 18:26:02;;;;;;;120.77;53.73;;;;;;;;;;4942684;28;20329;-67
2022/12/17 18:28:30;;;;;;;133.33;58.27;;;;;;;;;;4961273;28;20568;-66
2022/12/17 18:30:55;;;;;;;128.97;56.60;;;;;;;;;;4960727;28;20081;-67
2022/12/17 18:33:20;;;;;;;133.70;59.13;;;;;;;;;;4943472;28;20889;-67
2022/12/17 18:35:46;;;;;;;133.10;58.47;;;;;;;;;;4960429;28;20434;-67
2022/12/17 18:38:12;;;;;;;132.40;56.63;;;;;;;;;;4961321;28;20038;-66
2022/12/17 18:40:40;;;;;;;131.13;56.40;;;;;;;;;;4943570;28;20450;-67
2022/12/17 18:43:23;;;;;;;133.47;58.03;;;;;;;;;;4961246;28;20121;-67
2022/12/17 18:45:49;;;;;;;125.10;54.63;;;;;;;;;;4927338;28;20153;-67
2022/12/17 18:48:15;;;;;;;126.57;54.90;;;;;;;;;;4961076;28;20058;-67
2022/12/17 18:50:40;;;;;;;124.80;53.10;;;;;;;;;;4960625;28;20044;-67
2022/12/17 18:53:08;;;;;;;129.23;54.00;;;;;;;;;;4960984;28;20137;-68
2022/12/17 18:55:39;;;;;;;133.53;55.47;;;;;;;;;;4960534;28;20097;-67
2022/12/17 18:58:05;;;;;;;132.17;55.30;;;;;;;;;;4960161;28;20030;-69
2022/12/17 19:00:30;;;;;;;134.00;57.70;;;;;;;;;;4960931;28;20061;-68
2022/12/17 19:02:58;;;;;;;130.70;56.73;;;;;;;;;;4960182;28;20668;-68
2022/12/17 19:05:23;;;;;;;130.03;56.50;;;;;;;;;;4942766;28;20131;-67
2022/12/17 19:07:50;;;;;;;136.23;58.20;;;;;;;;;;4960493;28;20622;-67
2022/12/17 19:10:15;;;;;;;141.47;58.27;;;;;;;;;;4960031;28;20054;-68
2022/12/17 19:12:41;;;;;;;127.27;55.97;;;;;;;;;;4942967;28;20122;-67
2022/12/17 19:15:06;;;;;;;143.07;63.37;;;;;;;;;;4960023;28;20030;-67
2022/12/17 19:17:32;;;;;;;147.70;62.47;;;;;;;;;;4942975;28;20040;-67
2022/12/17 19:19:59;;;;;;;139.73;59.27;;;;;;;;;;4959690;28;20513;-67
2022/12/17 19:22:25;;;;;;;130.70;56.80;;;;;;;;;;4960592;28;20106;-67
2022/12/17 19:24:53;;;;;;;132.37;55.90;;;;;;;;;;4960153;28;20243;-68
2022/12/17 19:27:18;;;;;;;129.73;54.07;;;;;;;;;;4948291;28;20042;-68
2022/12/17 19:29:45;;;;;;;135.03;54.43;;;;;;;;;;4942152;28;20425;-68
2022/12/17 19:32:11;;;;;;;127.17;52.47;;;;;;;;;;4960197;28;20118;-67
2022/12/17 19:34:36;;;;;;;133.10;53.97;;;;;;;;;;4960051;28;20467;-69
2022/12/17 19:37:04;;;;;;;142.37;57.10;;;;;;;;;;4941541;28;20136;-66
2022/12/17 19:39:29;;;;;;;126.73;53.20;;;;;;;;;;4959618;28;20038;-69
2022/12/17 19:41:55;;;;;;;131.53;53.50;;;;;;;;;;4942314;28;20030;-67
2022/12/17 19:44:20;;;;;;;132.73;56.70;;;;;;;;;;4959889;28;20262;-69
2022/12/17 19:46:45;;;;;;;123.33;52.97;;;;;;;;;;4960008;28;20038;-67
2022/12/17 19:49:11;;;;;;;131.60;53.93;;;;;;;;;;4926226;28;20280;-67
2022/12/17 19:51:39;;;;;;;126.57;52.30;;;;;;;;;;4959673;28;20513;-68
2022/12/17 19:54:04;;;;;;;139.23;54.60;;;;;;;;;;4959763;28;20429;-68
2022/12/17 19:56:30;;;;;;;132.23;54.30;;;;;;;;;;4959340;28;20491;-67
2022/12/17 19:58:57;;;;;;;126.93;49.87;;;;;;;;;;4960034;28;20067;-67
2022/12/17 20:01:32;;;;;;;122.10;51.47;;;;;;;;;;4959520;28;20038;-66
2022/12/17 20:03:57;;;;;;;122.80;51.53;;;;;;;;;;4942317;28;20030;-66
2022/12/17 20:06:23;;;;;;;119.67;51.07;;;;;;;;;;4959590;28;20354;-67
2022/12/17 20:08:51;;;;;;;116.40;44.43;;;;;;;;;;4959423;28;20528;-67
2022/12/17 20:11:32;;;;;;;115.80;46.83;;;;;;;;;;4959170;28;20360;-67
2022/12/17 20:14:01;;;;;;;112.28;45.42;;;;;;;;;;4959831;28;20057;-67
2022/12/17 20:16:27;;;;;;;109.63;44.13;;;;;;;;;;4959414;28;20113;-66
2022/12/17 20:18:56;;;;;;;113.30;44.00;;;;;;;;;;4942456;28;20098;-67
2022/12/17 20:21:21;;;;;;;109.23;44.20;;;;;;;;;;4959435;28;20278;-67
2022/12/17 20:23:49;;;;;;;110.57;44.27;;;;;;;;;;4959812;28;20278;-67
2022/12/17 20:26:15;;;;;;;116.37;45.47;;;;;;;;;;4959153;28;20038;-66
2022/12/17 20:28:40;;;;;;;112.60;45.43;;;;;;;;;;4942406;28;20264;-67
2022/12/17 20:31:06;;;;;;;114.83;46.27;;;;;;;;;;4959454;28;20205;-66
2022/12/17 20:33:31;;;;;;;116.17;45.40;;;;;;;;;;4959648;28;20292;-67
2022/12/17 20:36:07;;;;;;;126.00;48.73;;;;;;;;;;4959054;28;20034;-67
2022/12/17 20:38:33;;;;;;;121.73;49.13;;;;;;;;;;4952860;28;20141;-67
2022/12/17 20:40:58;;;;;;;123.93;48.80;;;;;;;;;;4959524;28;20118;-67
2022/12/17 20:43:24;;;;;;;136.83;53.63;;;;;;;;;;4959111;28;20104;-67
2022/12/17 20:45:50;;;;;;;114.83;47.23;;;;;;;;;;4941441;28;20092;-68
2022/12/17 20:48:16;;;;;;;117.57;46.77;;;;;;;;;;4956601;28;20045;-67
2022/12/17 20:50:42;;;;;;;111.87;46.40;;;;;;;;;;4960212;28;20099;-67
2022/12/17 20:53:07;;;;;;;114.73;45.90;;;;;;;;;;4944184;28;20038;-67
2022/12/17 20:55:33;;;;;;;129.90;49.53;;;;;;;;;;4961319;28;20301;-67
2022/12/17 20:57:58;;;;;;;135.50;53.00;;;;;;;;;;4944767;28;20035;-67
2022/12/17 21:00:26;;;;;;;135.20;53.03;;;;;;;;;;4962621;28;20037;-67
2022/12/17 21:02:56;;;;;;;125.67;52.30;;;;;;;;;;4960869;28;20026;-67
2022/12/17 21:05:24;;;;;;;140.93;52.77;;;;;;;;;;4962413;28;20038;-67
2022/12/17 21:07:51;;;;;;;134.57;51.83;;;;;;;;;;4962703;28;20054;-68
2022/12/17 21:10:18;;;;;;;137.73;53.73;;;;;;;;;;4962242;28;20049;-67
2022/12/17 21:15:27;;;;;;;139.93;53.97;;;;;;;;;;4961935;28;20435;-68
2022/12/17 21:17:54;;;;;;;136.93;52.63;;;;;;;;;;4962116;28;20065;-67
2022/12/17 21:20:20;;;;;;;125.13;47.63;;;;;;;;;;4962283;28;20654;-67
2022/12/17 21:22:45;;;;;;;120.43;46.17;;;;;;;;;;4962181;28;20038;-67
2022/12/17 21:25:10;;;;;;;117.73;45.20;;;;;;;;;;4928549;28;20232;-66
2022/12/17 21:27:38;;;;;;;124.77;47.03;;;;;;;;;;4962586;28;20046;-67
2022/12/17 21:30:03;;;;;;;128.77;49.23;;;;;;;;;;4944174;28;20042;-67
2022/12/17 21:32:28;;;;;;;122.80;47.60;;;;;;;;;;4944629;28;20031;-67
2022/12/17 21:34:54;;;;;;;128.17;47.53;;;;;;;;;;4961935;28;20131;-67
2022/12/17 21:37:19;;;;;;;130.90;46.23;;;;;;;;;;4962533;28;20330;-67
2022/12/17 21:39:45;;;;;;;136.43;48.20;;;;;;;;;;4961664;28;20263;-67
2022/12/17 21:44:58;;;;;;;140.73;48.00;;;;;;;;;;4961984;28;20133;-68
2022/12/17 21:47:25;;;;;;;128.80;47.50;;;;;;;;;;4943668;28;20026;-67
2022/12/17 21:49:50;;;;;;;117.53;44.27;;;;;;;;;;4944800;28;20069;-67
2022/12/17 21:52:16;;;;;;;123.30;44.97;;;;;;;;;;4961607;28;20023;-66
2022/12/17 21:54:41;;;;;;;126.17;44.43;;;;;;;;;;4944406;28;20022;-67
2022/12/17 21:57:06;;;;;;;122.63;44.70;;;;;;;;;;4961357;28;20046;-66
2022/12/17 21:59:34;;;;;;;116.07;43.57;;;;;;;;;;4961289;28;20034;-68
2022/12/17 22:02:00;;;;;;;133.20;46.43;;;;;;;;;;4960727;28;20049;-67
2022/12/17 22:04:25;;;;;;;127.00;45.33;;;;;;;;;;4960355;28;20022;-67
2022/12/17 22:06:53;;;;;;;119.60;42.90;;;;;;;;;;4960907;28;20379;-66
2022/12/17 22:09:21;;;;;;;121.20;42.90;;;;;;;;;;4962156;28;20042;-67
2022/12/17 22:11:46;;;;;;;117.43;42.93;;;;;;;;;;4960880;28;20486;-67
2022/12/17 22:14:12;;;;;;;130.63;44.90;;;;;;;;;;4961332;28;20031;-67
2022/12/17 22:16:41;;;;;;;119.53;44.43;;;;;;;;;;4960844;28;20522;-67
2022/12/17 22:19:06;;;;;;;127.57;44.20;;;;;;;;;;4959468;28;20034;-67
2022/12/17 22:21:33;;;;;;;122.83;44.10;;;;;;;;;;4961581;28;20121;-67
2022/12/17 22:24:00;;;;;;;130.50;48.60;;;;;;;;;;4961127;28;20053;-67
2022/12/17 22:26:26;;;;;;;119.80;44.60;;;;;;;;;;4961794;28;20030;-67
2022/12/17 22:28:52;;;;;;;122.13;44.40;;;;;;;;;;4943126;28;20428;-67
2022/12/17 22:34:04;;;;;;;132.33;45.87;;;;;;;;;;4942789;28;20046;-68
2022/12/17 22:36:32;;;;;;;132.87;48.20;;;;;;;;;;4960429;28;20125;-66
2022/12/17 22:39:04;;;;;;;138.60;51.37;;;;;;;;;;4960659;28;20343;-66
2022/12/17 22:44:16;;;;;;;145.77;52.87;;;;;;;;;;4929010;28;20510;-67
2022/12/17 22:46:41;;;;;;;138.00;49.40;;;;;;;;;;4960150;28;20111;-67
2022/12/17 22:49:07;;;;;;;140.73;50.63;;;;;;;;;;4960564;28;20430;-67
2022/12/17 22:51:33;;;;;;;144.27;49.77;;;;;;;;;;4960251;28;20046;-67
2022/12/17 22:53:59;;;;;;;137.87;49.00;;;;;;;;;;4960322;28;20610;-67
2022/12/17 22:56:25;;;;;;;155.13;51.47;;;;;;;;;;4958958;28;20046;-66
2022/12/17 22:58:50;;;;;;;135.43;46.37;;;;;;;;;;4960438;28;20576;-66
2022/12/17 23:01:16;;;;;;;142.07;47.83;;;;;;;;;;4960732;28;20034;-66
2022/12/17 23:03:42;;;;;;;133.93;45.87;;;;;;;;;;4960705;28;20113;-67
2022/12/17 23:06:12;;;;;;;136.80;45.70;;;;;;;;;;4960281;28;20027;-67
2022/12/17 23:08:40;;;;;;;123.80;45.93;;;;;;;;;;4959942;28;20602;-67
2022/12/17 23:11:09;;;;;;;150.53;52.07;;;;;;;;;;4960332;28;20034;-67
2022/12/17 23:13:37;;;;;;;127.03;45.10;;;;;;;;;;4959219;28;20034;-68
2022/12/17 23:16:03;;;;;;;123.37;46.17;;;;;;;;;;4959568;28;20557;-66
2022/12/17 23:18:31;;;;;;;131.37;47.67;;;;;;;;;;4942480;28;20039;-67
2022/12/17 23:21:03;;;;;;;141.67;48.67;;;;;;;;;;4941794;28;20034;-67
2022/12/17 23:23:36;;;;;;;138.93;50.03;;;;;;;;;;4942983;28;20034;-66
2022/12/17 23:26:08;;;;;;;141.00;50.30;;;;;;;;;;4941878;28;20026;-67
2022/12/17 23:28:34;;;;;;;138.83;50.97;;;;;;;;;;4960184;28;20034;-67
2022/12/17 23:31:07;;;;;;;145.23;49.43;;;;;;;;;;4960257;28;20319;-67
2022/12/17 23:33:35;;;;;;;139.33;48.70;;;;;;;;;;4960596;28;20587;-67
2022/12/17 23:36:01;;;;;;;148.40;52.37;;;;;;;;;;4942300;28;20026;-65
2022/12/17 23:38:29;;;;;;;148.73;52.80;;;;;;;;;;4960445;28;20030;-68
2022/12/17 23:41:00;;;;;;;154.23;52.70;;;;;;;;;;4959814;28;20033;-66
2022/12/17 23:43:25;;;;;;;173.63;56.43;;;;;;;;;;4959718;28;20088;-67
2022/12/17 23:45:53;;;;;;;167.10;55.63;;;;;;;;;;4942446;28;20034;-66
2022/12/17 23:48:20;;;;;;;161.40;54.20;;;;;;;;;;4943450;28;20195;-67
2022/12/17 23:50:48;;;;;;;144.93;53.63;;;;;;;;;;4959874;28;20027;-66
2022/12/17 23:53:14;;;;;;;159.80;58.10;;;;;;;;;;4959656;28;20031;-66
2022/12/17 23:55:42;;;;;;;150.13;53.17;;;;;;;;;;4941375;28;20480;-67
2022/12/17 23:58:07;;;;;;;148.80;50.73;;;;;;;;;;4959197;28;20034;-67
